createdAt,value
2023-04-11T00:00:35.658Z,93893.59
2023-04-11T00:03:02.526Z,93886.69
2023-04-11T00:05:31.453Z,93883.38
2023-04-11T00:07:58.119Z,93884.66
2023-04-11T00:10:25.374Z,93878.44
2023-04-11T00:12:56.706Z,93879.47
2023-04-11T00:15:27.023Z,93867.03
2023-04-11T00:17:55.040Z,93872.25
2023-04-11T00:20:22.259Z,93864.25
2023-04-11T00:22:48.985Z,93863.22
2023-04-11T00:25:15.911Z,93865.56
2023-04-11T00:27:42.681Z,93863.13
2023-04-11T00:30:09.636Z,93857.28
2023-04-11T00:32:36.375Z,93862.97
2023-04-11T00:35:03.208Z,93859.63
2023-04-11T00:37:31.692Z,93863.66
2023-04-11T00:39:58.276Z,93858.91
2023-04-11T00:42:24.838Z,93853.09
2023-04-11T00:44:51.487Z,93856.28
2023-04-11T00:47:18.378Z,93860.28
2023-04-11T00:49:45.828Z,93854.34
2023-04-11T00:52:13.719Z,93862.72
2023-04-11T00:54:40.700Z,93854.06
2023-04-11T00:57:08.056Z,93855.47
2023-04-11T00:59:35.260Z,93859.06
2023-04-11T01:02:02.034Z,93858.56
2023-04-11T01:04:31.735Z,93852.13
2023-04-11T01:07:06.273Z,93860.72
2023-04-11T01:09:34.776Z,93858.31
2023-04-11T01:12:03.141Z,93864.69
2023-04-11T01:14:30.684Z,93866.06
2023-04-11T01:16:58.234Z,93861.66
2023-04-11T01:19:28.906Z,93869.78
2023-04-11T01:21:57.849Z,93866.41
2023-04-11T01:24:24.725Z,93861.91
2023-04-11T01:26:52.192Z,93862.22
2023-04-11T01:29:18.996Z,93862.19
2023-04-11T01:31:46.285Z,93863.03
2023-04-11T01:34:14.957Z,93856.34
2023-04-11T01:36:42.742Z,93866.91
2023-04-11T01:39:10.116Z,93853.16
2023-04-11T01:41:37.648Z,93859.53
2023-04-11T01:44:05.199Z,93857.47
2023-04-11T01:46:32.531Z,93852.16
2023-04-11T01:49:00.611Z,93851.97
2023-04-11T01:51:27.768Z,93861.09
2023-04-11T01:53:54.926Z,93850.63
2023-04-11T01:56:22.084Z,93847.22
2023-04-11T01:58:48.744Z,93849.47
2023-04-11T02:01:20.259Z,93846.88
2023-04-11T02:03:47.125Z,93838.34
2023-04-11T02:06:16.010Z,93834.41
2023-04-11T02:08:43.464Z,93836.72
2023-04-11T02:11:10.809Z,93837.25
2023-04-11T02:13:37.806Z,93831.66
2023-04-11T02:16:10.005Z,93835.00
2023-04-11T02:18:37.330Z,93845.78
2023-04-11T02:21:04.841Z,93851.31
2023-04-11T02:23:31.528Z,93843.63
2023-04-11T02:25:58.110Z,93842.25
2023-04-11T02:28:24.786Z,93848.25
2023-04-11T02:30:51.441Z,93848.22
2023-04-11T02:33:19.225Z,93850.13
2023-04-11T02:35:46.500Z,93836.91
2023-04-11T02:38:13.454Z,93843.47
2023-04-11T02:40:40.091Z,93847.09
2023-04-11T02:43:06.724Z,93844.75
2023-04-11T02:45:33.348Z,93854.66
2023-04-11T02:47:59.975Z,93851.34
2023-04-11T02:50:27.231Z,93834.53
2023-04-11T02:52:54.446Z,93838.34
2023-04-11T02:55:23.287Z,93827.53
2023-04-11T02:57:50.689Z,93826.56
2023-04-11T03:00:20.008Z,93824.44
2023-04-11T03:02:46.753Z,93833.13
2023-04-11T03:05:13.346Z,93824.69
2023-04-11T03:07:40.694Z,93830.34
2023-04-11T03:10:08.135Z,93825.72
2023-04-11T03:12:34.815Z,93825.22
2023-04-11T03:15:01.384Z,93824.16
2023-04-11T03:17:28.073Z,93823.50
2023-04-11T03:19:55.032Z,93834.06
2023-04-11T03:22:21.735Z,93823.91
2023-04-11T03:24:49.812Z,93829.78
2023-04-11T03:27:16.447Z,93832.50
2023-04-11T03:29:43.077Z,93829.56
2023-04-11T03:32:09.930Z,93827.84
2023-04-11T03:34:36.571Z,93830.00
2023-04-11T03:37:03.668Z,93828.69
2023-04-11T03:39:30.378Z,93826.03
2023-04-11T03:41:57.815Z,93827.28
2023-04-11T03:44:24.411Z,93833.69
2023-04-11T03:46:51.203Z,93824.09
2023-04-11T03:49:17.804Z,93825.91
2023-04-11T03:51:44.445Z,93834.72
2023-04-11T03:54:11.071Z,93826.25
2023-04-11T03:56:37.741Z,93825.13
2023-04-11T03:59:04.392Z,93834.19
2023-04-11T04:01:32.607Z,93832.06
2023-04-11T04:04:00.945Z,93828.16
2023-04-11T04:06:28.563Z,93825.47
2023-04-11T04:08:55.435Z,93832.06
2023-04-11T04:11:22.146Z,93830.78
2023-04-11T04:13:48.811Z,93834.94
2023-04-11T04:16:17.069Z,93828.75
2023-04-11T04:18:43.707Z,93832.06
2023-04-11T04:21:10.303Z,93830.59
2023-04-11T04:23:39.258Z,93834.91
2023-04-11T04:26:06.591Z,93824.22
2023-04-11T04:28:33.422Z,93824.44
2023-04-11T04:31:02.168Z,93826.88
2023-04-11T04:33:28.795Z,93829.66
2023-04-11T04:35:59.925Z,93829.63
2023-04-11T04:38:29.079Z,93828.84
2023-04-11T04:40:55.812Z,93832.00
2023-04-11T04:43:24.406Z,93824.63
2023-04-11T04:45:51.400Z,93835.66
2023-04-11T04:48:18.073Z,93827.72
2023-04-11T04:50:45.837Z,93828.19
2023-04-11T04:53:12.617Z,93817.22
2023-04-11T04:55:39.407Z,93819.38
2023-04-11T04:58:06.203Z,93827.03
2023-04-11T05:00:33.680Z,93822.28
2023-04-11T05:03:00.571Z,93822.31
2023-04-11T05:05:27.450Z,93825.19
2023-04-11T05:07:54.073Z,93822.47
2023-04-11T05:10:20.906Z,93818.53
2023-04-11T05:12:47.729Z,93827.59
2023-04-11T05:15:15.211Z,93819.09
2023-04-11T05:17:42.986Z,93813.97
2023-04-11T05:20:10.406Z,93824.63
2023-04-11T05:22:38.095Z,93821.41
2023-04-11T05:25:05.784Z,93828.22
2023-04-11T05:27:32.405Z,93825.44
2023-04-11T05:29:59.608Z,93824.84
2023-04-11T05:32:26.304Z,93825.56
2023-04-11T05:34:58.116Z,93812.66
2023-04-11T05:37:26.171Z,93816.53
2023-04-11T05:39:53.314Z,93812.44
2023-04-11T05:42:19.934Z,93814.81
2023-04-11T05:44:46.564Z,93808.78
2023-04-11T05:47:13.208Z,93801.97
2023-04-11T05:49:39.856Z,93807.25
2023-04-11T05:52:06.927Z,93803.09
2023-04-11T05:54:35.498Z,93800.59
2023-04-11T05:57:02.808Z,93806.47
2023-04-11T05:59:32.748Z,93805.16
2023-04-11T06:01:59.471Z,93810.78
2023-04-11T06:04:26.873Z,93803.38
2023-04-11T06:06:54.185Z,93805.59
2023-04-11T06:09:20.926Z,93796.66
2023-04-11T06:11:47.641Z,93797.84
2023-04-11T06:14:14.326Z,93796.09
2023-04-11T06:16:41.421Z,93789.69
2023-04-11T06:19:08.091Z,93789.25
2023-04-11T06:21:34.823Z,93789.34
2023-04-11T06:24:08.448Z,93784.69
2023-04-11T06:26:35.078Z,93791.50
2023-04-11T06:29:05.095Z,93786.00
2023-04-11T06:31:32.264Z,93780.91
2023-04-11T06:34:00.580Z,93796.75
2023-04-11T06:36:27.555Z,93787.03
2023-04-11T06:38:54.240Z,93782.91
2023-04-11T06:41:21.035Z,93781.16
2023-04-11T06:43:47.639Z,93778.00
2023-04-11T06:46:14.238Z,93772.72
2023-04-11T06:48:40.992Z,93770.72
2023-04-11T06:51:09.191Z,93776.94
2023-04-11T06:53:36.057Z,93778.69
2023-04-11T06:56:02.633Z,93774.50
2023-04-11T06:58:29.277Z,93787.88
2023-04-11T07:00:55.892Z,93784.72
2023-04-11T07:03:25.186Z,93798.19
2023-04-11T07:05:52.354Z,93779.97
2023-04-11T07:08:18.989Z,93787.19
2023-04-11T07:10:45.615Z,93783.75
2023-04-11T07:13:12.334Z,93781.94
2023-04-11T07:15:38.981Z,93784.44
2023-04-11T07:18:06.014Z,93776.19
2023-04-11T07:20:34.384Z,93784.53
2023-04-11T07:23:01.023Z,93771.25
2023-04-11T07:25:30.870Z,93772.38
2023-04-11T07:27:57.796Z,93777.03
2023-04-11T07:30:24.469Z,93775.50
2023-04-11T07:32:51.240Z,93778.88
2023-04-11T07:35:18.146Z,93764.50
2023-04-11T07:37:45.677Z,93770.00
2023-04-11T07:40:15.523Z,93769.72
2023-04-11T07:42:42.727Z,93758.75
2023-04-11T07:45:09.574Z,93755.41
2023-04-11T07:47:36.274Z,93744.59
2023-04-11T07:50:04.160Z,93739.50
2023-04-11T07:52:31.343Z,93748.47
2023-04-11T07:54:57.999Z,93748.84
2023-04-11T07:57:24.716Z,93741.00
2023-04-11T07:59:51.291Z,93745.56
2023-04-11T08:02:18.055Z,93740.13
2023-04-11T08:04:45.507Z,93731.00
2023-04-11T08:07:12.284Z,93735.50
2023-04-11T08:09:39.151Z,93735.94
2023-04-11T08:12:06.280Z,93723.09
2023-04-11T08:14:32.900Z,93742.66
2023-04-11T08:16:59.674Z,93724.00
2023-04-11T08:19:27.119Z,93713.56
2023-04-11T08:21:54.016Z,93711.53
2023-04-11T08:24:21.092Z,93717.63
2023-04-11T08:26:47.797Z,93707.69
2023-04-11T08:29:14.438Z,93701.41
2023-04-11T08:31:44.586Z,93699.66
2023-04-11T08:34:12.041Z,93695.50
2023-04-11T08:36:38.799Z,93696.28
2023-04-11T08:39:05.529Z,93695.81
2023-04-11T08:41:33.565Z,93701.06
2023-04-11T08:44:00.687Z,93695.16
2023-04-11T08:46:27.446Z,93688.03
2023-04-11T08:48:54.923Z,93697.38
2023-04-11T08:51:27.000Z,93679.03
2023-04-11T08:53:58.177Z,93678.69
2023-04-11T08:56:25.109Z,93672.34
2023-04-11T08:58:51.730Z,93677.44
2023-04-11T09:01:29.723Z,93670.38
2023-04-11T09:03:56.947Z,93670.16
2023-04-11T09:06:24.065Z,93672.81
2023-04-11T09:08:50.920Z,93667.44
2023-04-11T09:11:17.993Z,93673.59
2023-04-11T09:13:44.546Z,93662.94
2023-04-11T09:16:13.558Z,93657.25
2023-04-11T09:18:46.541Z,93651.53
2023-04-11T09:21:15.546Z,93656.00
2023-04-11T09:23:42.715Z,93652.63
2023-04-11T09:26:11.190Z,93653.31
2023-04-11T09:28:50.684Z,93646.75
2023-04-11T09:31:17.372Z,93641.50
2023-04-11T09:33:54.881Z,93647.31
2023-04-11T09:36:23.754Z,93639.31
2023-04-11T09:38:51.714Z,93626.03
2023-04-11T09:41:33.415Z,93627.41
2023-04-11T09:44:01.349Z,93625.47
2023-04-11T09:46:28.300Z,93623.22
2023-04-11T09:48:55.298Z,93613.19
2023-04-11T09:51:35.143Z,93606.56
2023-04-11T09:54:04.530Z,93611.13
2023-04-11T09:56:32.109Z,93603.72
2023-04-11T09:59:00.253Z,93595.84
2023-04-11T10:01:27.527Z,93599.03
2023-04-11T10:03:56.660Z,93598.69
2023-04-11T10:06:34.396Z,93587.72
2023-04-11T10:09:12.827Z,93592.19
2023-04-11T10:11:46.166Z,93579.28
2023-04-11T10:14:38.884Z,93583.38
2023-04-11T10:17:26.369Z,93574.13
2023-04-11T10:19:59.083Z,93576.19
2023-04-11T10:22:42.147Z,93579.84
2023-04-11T10:25:19.195Z,93571.78
2023-04-11T10:28:03.933Z,93560.00
2023-04-11T10:30:39.592Z,93554.22
2023-04-11T10:33:14.971Z,93560.41
2023-04-11T10:36:00.142Z,93548.22
2023-04-11T10:38:49.233Z,93555.19
2023-04-11T10:41:34.273Z,93537.28
2023-04-11T10:44:24.799Z,93548.25
2023-04-11T10:46:54.349Z,93543.31
2023-04-11T10:49:36.519Z,93533.75
2023-04-11T10:52:21.706Z,93535.13
2023-04-11T10:54:53.138Z,93545.47
2023-04-11T10:57:21.261Z,93539.38
2023-04-11T10:59:47.772Z,93523.13
2023-04-11T11:02:14.707Z,93517.06
2023-04-11T11:04:41.472Z,93522.50
2023-04-11T11:07:13.126Z,93512.03
2023-04-11T11:09:39.826Z,93519.44
2023-04-11T11:12:11.107Z,93508.91
2023-04-11T11:14:39.423Z,93500.66
2023-04-11T11:17:06.749Z,93502.59
2023-04-11T11:19:33.923Z,93494.06
2023-04-11T11:22:03.810Z,93503.13
2023-04-11T11:24:30.994Z,93495.63
2023-04-11T11:26:58.304Z,93493.91
2023-04-11T11:29:35.999Z,93488.34
2023-04-11T11:32:05.967Z,93495.25
2023-04-11T11:34:35.441Z,93489.50
2023-04-11T11:37:06.748Z,93487.59
2023-04-11T11:39:34.998Z,93485.03
2023-04-11T11:42:01.886Z,93472.72
2023-04-11T11:44:30.401Z,93457.06
2023-04-11T11:47:12.882Z,93461.25
2023-04-11T11:49:51.123Z,93462.47
2023-04-11T11:52:39.855Z,93458.53
2023-04-11T11:55:30.700Z,93453.66
2023-04-11T11:58:02.354Z,93435.16
2023-04-11T12:00:31.261Z,93450.91
2023-04-11T12:03:02.409Z,93455.03
2023-04-11T12:05:31.988Z,93458.88
2023-04-11T12:08:02.240Z,93454.47
2023-04-11T12:10:38.471Z,93439.13
2023-04-11T12:13:17.827Z,93436.78
2023-04-11T12:15:46.503Z,93441.69
2023-04-11T12:18:13.360Z,93445.00
2023-04-11T12:20:40.624Z,93441.09
2023-04-11T12:23:07.384Z,93445.88
2023-04-11T12:25:34.038Z,93435.84
2023-04-11T12:28:00.686Z,93436.75
2023-04-11T12:30:28.250Z,93437.94
2023-04-11T12:32:56.624Z,93434.25
2023-04-11T12:35:23.346Z,93423.66
2023-04-11T12:37:49.972Z,93420.16
2023-04-11T12:40:17.122Z,93418.28
2023-04-11T12:42:56.181Z,93413.63
2023-04-11T12:45:23.841Z,93415.16
2023-04-11T12:47:50.953Z,93410.16
2023-04-11T12:50:18.285Z,93403.38
2023-04-11T12:52:45.061Z,93404.50
2023-04-11T12:55:13.431Z,93403.69
2023-04-11T12:57:41.013Z,93398.38
2023-04-11T13:00:08.986Z,93386.91
2023-04-11T13:02:43.268Z,93376.94
2023-04-11T13:05:14.079Z,93381.88
2023-04-11T13:07:41.228Z,93383.06
2023-04-11T13:10:08.766Z,93376.16
2023-04-11T13:12:40.983Z,93378.47
2023-04-11T13:15:09.525Z,93378.84
2023-04-11T13:17:36.278Z,93369.63
2023-04-11T13:20:07.266Z,93368.06
2023-04-11T13:22:34.460Z,93371.53
2023-04-11T13:25:01.095Z,93381.13
2023-04-11T13:27:27.759Z,93368.34
2023-04-11T13:29:54.571Z,93372.66
2023-04-11T13:32:21.269Z,93363.44
2023-04-11T13:34:47.964Z,93367.66
2023-04-11T13:37:14.602Z,93368.44
2023-04-11T13:39:42.849Z,93368.84
2023-04-11T13:42:10.532Z,93362.28
2023-04-11T13:44:37.201Z,93360.75
2023-04-11T13:47:03.825Z,93364.16
2023-04-11T13:49:30.721Z,93356.94
2023-04-11T13:51:57.415Z,93373.06
2023-04-11T13:54:24.098Z,93365.63
2023-04-11T13:56:51.100Z,93360.28
2023-04-11T13:59:17.737Z,93357.59
2023-04-11T14:01:44.543Z,93362.13
2023-04-11T14:04:11.929Z,93358.72
2023-04-11T14:06:39.668Z,93358.41
2023-04-11T14:09:06.340Z,93347.53
2023-04-11T14:11:34.156Z,93360.25
2023-04-11T14:14:01.107Z,93367.44
2023-04-11T14:16:27.771Z,93355.28
2023-04-11T14:18:54.434Z,93355.38
2023-04-11T14:21:22.190Z,93358.84
2023-04-11T14:23:48.978Z,93347.66
2023-04-11T14:26:15.629Z,93349.97
2023-04-11T14:28:42.284Z,93355.97
2023-04-11T14:31:09.787Z,93347.66
2023-04-11T14:33:36.719Z,93340.03
2023-04-11T14:36:03.411Z,93331.63
2023-04-11T14:38:30.062Z,93336.22
2023-04-11T14:40:56.765Z,93324.72
2023-04-11T14:43:23.385Z,93321.69
2023-04-11T14:45:50.467Z,93332.41
2023-04-11T14:48:17.207Z,93325.38
2023-04-11T14:50:43.846Z,93334.66
2023-04-11T14:53:11.015Z,93332.78
2023-04-11T14:55:39.409Z,93328.53
2023-04-11T14:58:06.302Z,93330.09
2023-04-11T15:00:32.959Z,93335.72
2023-04-11T15:02:59.865Z,93336.94
2023-04-11T15:05:26.931Z,93333.94
2023-04-11T15:07:53.820Z,93328.56
2023-04-11T15:10:22.903Z,93330.84
2023-04-11T15:12:50.144Z,93338.47
2023-04-11T15:15:16.920Z,93337.75
2023-04-11T15:17:48.916Z,93337.38
2023-04-11T15:20:16.524Z,93337.00
2023-04-11T15:22:45.497Z,93340.03
2023-04-11T15:25:14.106Z,93347.16
2023-04-11T15:27:41.509Z,93341.28
2023-04-11T15:30:10.088Z,93341.28
2023-04-11T15:32:42.595Z,93342.38
2023-04-11T15:35:10.000Z,93340.66
2023-04-11T15:37:36.650Z,93337.72
2023-04-11T15:40:06.259Z,93327.31
2023-04-11T15:42:35.456Z,93334.81
2023-04-11T15:45:02.575Z,93340.34
2023-04-11T15:47:30.123Z,93337.44
2023-04-11T15:49:56.966Z,93333.47
2023-04-11T15:52:23.572Z,93335.47
2023-04-11T15:54:50.197Z,93329.72
2023-04-11T15:57:18.348Z,93327.72
2023-04-11T15:59:46.506Z,93330.94
2023-04-11T16:02:15.136Z,93330.53
2023-04-11T16:04:43.963Z,93329.16
2023-04-11T16:07:12.011Z,93331.31
2023-04-11T16:09:39.089Z,93333.63
2023-04-11T16:12:05.828Z,93338.56
2023-04-11T16:14:32.490Z,93332.88
2023-04-11T16:16:59.102Z,93338.75
2023-04-11T16:19:25.794Z,93341.50
2023-04-11T16:21:52.438Z,93346.13
2023-04-11T16:24:19.132Z,93334.28
2023-04-11T16:26:45.821Z,93343.41
2023-04-11T16:29:12.485Z,93340.53
2023-04-11T16:31:39.384Z,93338.31
2023-04-11T16:34:06.050Z,93339.09
2023-04-11T16:36:34.342Z,93332.75
2023-04-11T16:39:02.303Z,93344.75
2023-04-11T16:41:28.936Z,93329.41
2023-04-11T16:43:56.090Z,93328.47
2023-04-11T16:46:23.062Z,93330.31
2023-04-11T16:48:49.866Z,93322.69
2023-04-11T16:51:18.406Z,93324.91
2023-04-11T16:53:46.005Z,93330.59
2023-04-11T16:56:12.701Z,93330.31
2023-04-11T16:58:39.305Z,93325.81
2023-04-11T17:01:06.962Z,93323.25
2023-04-11T17:03:33.794Z,93321.53
2023-04-11T17:06:00.562Z,93330.22
2023-04-11T17:08:27.231Z,93336.59
2023-04-11T17:10:53.953Z,93339.38
2023-04-11T17:13:20.622Z,93338.88
2023-04-11T17:15:47.199Z,93341.44
2023-04-11T17:18:14.998Z,93337.56
2023-04-11T17:20:43.459Z,93337.59
2023-04-11T17:23:10.346Z,93331.34
2023-04-11T17:25:37.190Z,93334.03
2023-04-11T17:28:04.074Z,93328.66
2023-04-11T17:30:32.029Z,93341.91
2023-04-11T17:32:59.752Z,93332.09
2023-04-11T17:35:28.110Z,93341.84
2023-04-11T17:37:55.371Z,93333.38
2023-04-11T17:40:22.071Z,93336.19
2023-04-11T17:42:49.183Z,93344.28
2023-04-11T17:45:18.588Z,93343.78
2023-04-11T17:47:47.351Z,93344.50
2023-04-11T17:50:14.634Z,93358.03
2023-04-11T17:52:43.014Z,93354.19
2023-04-11T17:55:11.779Z,93357.53
2023-04-11T17:57:39.221Z,93372.00
2023-04-11T18:00:26.593Z,93373.06
2023-04-11T18:02:55.128Z,93379.81
2023-04-11T18:05:25.016Z,93381.13
2023-04-11T18:07:59.008Z,93382.94
2023-04-11T18:10:27.458Z,93387.84
2023-04-11T18:12:56.262Z,93377.38
2023-04-11T18:15:23.664Z,93385.38
2023-04-11T18:17:51.940Z,93387.84
2023-04-11T18:20:18.829Z,93386.31
2023-04-11T18:22:47.549Z,93378.47
2023-04-11T18:25:14.628Z,93372.38
2023-04-11T18:27:41.282Z,93383.63
2023-04-11T18:30:12.569Z,93380.31
2023-04-11T18:32:44.327Z,93375.81
2023-04-11T18:35:15.033Z,93387.69
2023-04-11T18:37:42.577Z,93391.41
2023-04-11T18:40:14.202Z,93389.25
2023-04-11T18:42:46.443Z,93399.47
2023-04-11T18:45:14.945Z,93388.56
2023-04-11T18:47:42.040Z,93390.53
2023-04-11T18:50:09.035Z,93386.06
2023-04-11T18:52:35.764Z,93385.59
2023-04-11T18:55:03.383Z,93382.34
2023-04-11T18:57:33.705Z,93383.47
2023-04-11T19:02:35.506Z,93380.63
2023-04-11T19:05:03.287Z,93384.09
2023-04-11T19:07:31.490Z,93393.47
2023-04-11T19:09:58.239Z,93391.72
2023-04-11T19:12:25.058Z,93391.34
2023-04-11T19:14:51.662Z,93379.31
2023-04-11T19:17:18.728Z,93382.53
2023-04-11T19:19:45.417Z,93382.31
2023-04-11T19:22:11.964Z,93380.81
2023-04-11T19:24:38.582Z,93380.06
2023-04-11T19:27:05.744Z,93378.72
2023-04-11T19:29:32.354Z,93377.41
2023-04-11T19:31:58.998Z,93377.00
2023-04-11T19:34:25.766Z,93378.09
2023-04-11T19:36:52.482Z,93368.44
2023-04-11T19:39:19.120Z,93370.38
2023-04-11T19:41:46.754Z,93370.88
2023-04-11T19:44:13.512Z,93371.28
2023-04-11T19:46:40.553Z,93380.09
2023-04-11T19:49:07.197Z,93372.13
2023-04-11T19:51:33.784Z,93376.78
2023-04-11T19:54:00.543Z,93376.59
2023-04-11T19:56:27.325Z,93372.03
2023-04-11T19:58:54.134Z,93370.97
2023-04-11T20:01:22.701Z,93368.88
2023-04-11T20:03:49.974Z,93366.41
2023-04-11T20:06:18.706Z,93369.13
2023-04-11T20:08:45.818Z,93361.00
2023-04-11T20:11:16.190Z,93366.28
2023-04-11T20:13:42.813Z,93367.38
2023-04-11T20:16:09.701Z,93356.03
2023-04-11T20:18:36.380Z,93361.16
2023-04-11T20:21:06.203Z,93372.28
2023-04-11T20:23:33.686Z,93358.47
2023-04-11T20:26:00.370Z,93362.00
2023-04-11T20:28:26.943Z,93357.22
2023-04-11T20:30:54.347Z,93366.63
2023-04-11T20:33:21.011Z,93355.34
2023-04-11T20:35:47.733Z,93349.16
2023-04-11T20:38:14.380Z,93353.09
2023-04-11T20:40:41.029Z,93346.69
2023-04-11T20:43:09.657Z,93353.38
2023-04-11T20:45:36.384Z,93346.22
2023-04-11T20:48:04.094Z,93350.78
2023-04-11T20:50:33.450Z,93346.66
2023-04-11T20:53:02.228Z,93350.94
2023-04-11T20:55:30.016Z,93346.03
2023-04-11T20:57:56.805Z,93344.22
2023-04-11T21:00:23.477Z,93346.53
2023-04-11T21:02:50.888Z,93345.75
2023-04-11T21:05:21.151Z,93345.66
2023-04-11T21:07:47.982Z,93356.78
2023-04-11T21:10:15.725Z,93343.03
2023-04-11T21:12:43.142Z,93338.75
2023-04-11T21:15:10.507Z,93347.47
2023-04-11T21:17:39.413Z,93347.38
2023-04-11T21:20:11.483Z,93344.28
2023-04-11T21:22:38.225Z,93345.22
2023-04-11T21:25:05.362Z,93345.28
2023-04-11T21:27:32.022Z,93347.91
2023-04-11T21:29:58.747Z,93335.66
2023-04-11T21:32:25.618Z,93336.75
2023-04-11T21:34:52.223Z,93348.03
2023-04-11T21:37:19.006Z,93338.56
2023-04-11T21:39:45.614Z,93332.13
2023-04-11T21:42:12.251Z,93327.44
2023-04-11T21:44:38.829Z,93330.66
2023-04-11T21:47:05.753Z,93327.44
2023-04-11T21:49:32.393Z,93330.41
2023-04-11T21:51:59.014Z,93333.78
2023-04-11T21:54:25.707Z,93321.56
2023-04-11T21:56:52.338Z,93328.91
2023-04-11T21:59:19.033Z,93320.94
2023-04-11T22:01:47.813Z,93314.19
2023-04-11T22:04:17.678Z,93318.00
2023-04-11T22:06:47.617Z,93323.66
2023-04-11T22:09:15.000Z,93324.91
2023-04-11T22:11:41.924Z,93325.84
2023-04-11T22:14:08.576Z,93327.03
2023-04-11T22:16:35.792Z,93322.78
2023-04-11T22:19:02.879Z,93321.41
2023-04-11T22:21:31.957Z,93322.06
2023-04-11T22:23:58.696Z,93324.09
2023-04-11T22:26:34.137Z,93317.28
2023-04-11T22:29:05.829Z,93319.88
2023-04-11T22:31:38.287Z,93313.41
2023-04-11T22:34:05.328Z,93321.81
2023-04-11T22:36:35.883Z,93315.81
2023-04-11T22:39:07.186Z,93319.28
2023-04-11T22:41:38.429Z,93315.94
2023-04-11T22:44:08.497Z,93303.75
2023-04-11T22:46:39.348Z,93317.28
2023-04-11T22:49:06.860Z,93314.50
2023-04-11T22:51:33.560Z,93303.00
2023-04-11T22:54:01.118Z,93317.00
2023-04-11T22:56:27.874Z,93302.38
2023-04-11T22:58:54.890Z,93299.13
2023-04-11T23:01:22.325Z,93299.88
2023-04-11T23:03:49.460Z,93298.53
2023-04-11T23:06:16.554Z,93295.69
2023-04-11T23:08:43.230Z,93299.47
2023-04-11T23:11:09.877Z,93293.66
2023-04-11T23:13:37.605Z,93295.16
2023-04-11T23:16:04.489Z,93297.31
2023-04-11T23:18:31.157Z,93293.28
2023-04-11T23:20:58.255Z,93285.53
2023-04-11T23:23:24.965Z,93292.75
2023-04-11T23:25:51.600Z,93286.28
2023-04-11T23:28:18.231Z,93294.44
2023-04-11T23:30:45.829Z,93278.56
2023-04-11T23:33:12.766Z,93289.69
2023-04-11T23:35:39.373Z,93281.72
2023-04-11T23:38:06.090Z,93274.66
2023-04-11T23:40:33.667Z,93269.25
2023-04-11T23:43:00.614Z,93263.47
2023-04-11T23:45:27.350Z,93275.44
2023-04-11T23:47:54.042Z,93263.50
2023-04-11T23:50:21.403Z,93256.44
2023-04-11T23:52:48.091Z,93255.50
2023-04-11T23:55:15.524Z,93261.78
2023-04-11T23:57:42.341Z,93258.47
